Overview Statistics Trail Chart Weather Telemetry Raw packets
 

This is the latest recevied telemetry packets stored in our database for station/object IZ5ILH-10. If no packets are shown the sender has not sent any telemetry packets the latest 10 day(s).

Telemetry packets is used to share measurements like repeteater parameters, battery voltage, radiation readings (or any other measurements).

<< 1 2 3 4 >>
Time Press* Temp.in* Hum* QNH* Temp.out*
1788608123 1012.4 hPa 31.7 C deg 35.5 % 1016.7 hPa 0 C deg
1788606292 1012.6 hPa 31.6 C deg 35.4 % 1016.9 hPa 0 C deg
1788604460 1012.8 hPa 31.5 C deg 35.5 % 1017.1 hPa 0 C deg
1788602692 1013.1 hPa 31.6 C deg 34.6 % 1017.4 hPa 0 C deg
1788598967 1013.2 hPa 32.1 C deg 33.3 % 1017.5 hPa 0 C deg
1788597139 1012.9 hPa 32.9 C deg 31.8 % 1017.2 hPa 0 C deg
1788591688 1012.6 hPa 31 C deg 34.8 % 1016.9 hPa 0 C deg
1788586161 1012.8 hPa 30.6 C deg 34.9 % 1017.1 hPa 0 C deg
1788584331 1012.6 hPa 30.5 C deg 34.8 % 1016.9 hPa 0 C deg
1788582511 1012.5 hPa 30.2 C deg 35.2 % 1016.9 hPa 0 C deg
1788577005 1012.5 hPa 31 C deg 34.6 % 1016.8 hPa 0 C deg
1788575178 1012.5 hPa 31 C deg 34.6 % 1016.8 hPa 0 C deg
1788571515 1012.4 hPa 31.3 C deg 34.6 % 1016.7 hPa 0 C deg
1788569694 1012.5 hPa 31.4 C deg 34.5 % 1016.8 hPa 0 C deg
1788567856 1012.6 hPa 31.5 C deg 34.6 % 1017 hPa 0 C deg
1788566028 1012.9 hPa 31.6 C deg 34.7 % 1017.2 hPa 0 C deg
1788564196 1012.9 hPa 31.6 C deg 34.8 % 1017.2 hPa 0 C deg
1788560541 1012.9 hPa 31.8 C deg 35.3 % 1017.2 hPa 0 C deg
1788558707 1013 hPa 31.9 C deg 35.3 % 1017.3 hPa 0 C deg
1788553216 1012.7 hPa 32 C deg 36.5 % 1017 hPa 0 C deg
1788549584 1012.5 hPa 32.2 C deg 36.8 % 1016.8 hPa 0 C deg
1788544099 1011.4 hPa 32.3 C deg 37.6 % 1015.7 hPa 0 C deg
1788538611 1011.3 hPa 32.3 C deg 37.4 % 1015.6 hPa 0 C deg
1788536747 1011.1 hPa 32.2 C deg 37 % 1015.4 hPa 0 C deg
1788534930 1011.2 hPa 32.2 C deg 36.8 % 1015.5 hPa 0 C deg
*Used Equation Coefficients:
Press: 0, 1, 0
Temp.in: 0, 1, 0
Hum: 0, 1, 0
QNH: 0, 1, 0
Temp.out: 0, 1, 0

  • The parameter names for the analog channels will be Value1, Value2, Value3 (up to Value5) if station has not sent a PARAM-packet that specifies the parameter names for each analog channel.
  • Each analog value is a decimal number between 000 and 255 (according to APRS specifications). The receiver use the telemetry equation coefficientsto to restore the original sensor values. If no EQNS-packet with equation coefficients is sent we will show the values as is (this corresponds to the equation coefficients a=0, b=1 and c=0).
    The sent equation coefficients is used in the equation: a * value2 + b * value + c.
  • The units for the analog values will not be shown if station has not sent a UNIT-packet specifying what unit's to use.
  • The parameter names for the digital bits will be Bit1, Bit2, Bit3 (up to Bit8) if station has not sent a PARAM-packet that specifies the parameter names for each digital bit.
  • All bit labels will be named "On" if station has not sent a UNIT-packet that specifies the label of each bit.
  • A bit is considered to be On when the bit is 1 if station has not sent a BITS-packet that specifies another "Bit sense" (a BITS-packet specify the state of the bits that match the BIT labels)